createdAt,value
2019-03-25T00:01:35.637Z,28.76
2019-03-25T00:02:12.095Z,28.77
2019-03-25T00:02:48.630Z,28.76
2019-03-25T00:03:25.202Z,28.79
2019-03-25T00:04:01.651Z,28.80
2019-03-25T00:04:38.072Z,28.81
2019-03-25T00:05:14.483Z,28.82
2019-03-25T00:05:50.942Z,28.82
2019-03-25T00:06:27.493Z,28.84
2019-03-25T00:07:04.030Z,28.87
2019-03-25T00:07:40.514Z,28.86
2019-03-25T00:08:17.068Z,28.87
2019-03-25T00:09:04.992Z,28.89
2019-03-25T00:09:32.284Z,28.91
2019-03-25T00:10:08.894Z,28.92
2019-03-25T00:10:45.300Z,28.93
2019-03-25T00:11:21.790Z,28.94
2019-03-25T00:11:58.236Z,28.95
2019-03-25T00:12:34.669Z,28.96
2019-03-25T00:13:11.154Z,28.95
2019-03-25T00:13:47.570Z,28.95
2019-03-25T00:14:24.006Z,28.96
2019-03-25T00:15:00.598Z,28.96
2019-03-25T00:15:37.031Z,28.98
2019-03-25T00:16:13.438Z,28.97
2019-03-25T00:16:49.964Z,28.99
2019-03-25T00:17:26.388Z,29.00
2019-03-25T00:18:02.801Z,29.00
2019-03-25T00:18:39.239Z,29.01
2019-03-25T00:19:15.811Z,29.02
2019-03-25T00:19:52.235Z,29.04
2019-03-25T00:20:28.723Z,29.05
2019-03-25T00:21:05.160Z,29.07
2019-03-25T00:21:41.571Z,29.09
2019-03-25T00:22:18.003Z,29.10
2019-03-25T00:22:54.391Z,29.12
2019-03-25T00:23:30.938Z,29.15
2019-03-25T00:24:07.391Z,29.16
2019-03-25T00:24:43.856Z,29.19
2019-03-25T00:25:20.474Z,29.20
2019-03-25T00:25:56.907Z,29.22
2019-03-25T00:26:33.406Z,29.22
2019-03-25T00:27:09.853Z,29.23
2019-03-25T00:27:46.323Z,29.24
2019-03-25T00:28:22.787Z,29.25
2019-03-25T00:28:59.207Z,29.23
2019-03-25T00:29:35.724Z,29.24
2019-03-25T00:30:12.295Z,29.25
2019-03-25T00:30:48.773Z,29.25
2019-03-25T00:31:25.325Z,29.27
2019-03-25T00:32:01.877Z,29.28
2019-03-25T00:32:39.466Z,29.31
2019-03-25T00:33:15.907Z,29.32
2019-03-25T00:33:52.487Z,29.32
2019-03-25T00:34:28.924Z,29.31
2019-03-25T00:35:05.370Z,29.31
2019-03-25T00:35:41.809Z,29.33
2019-03-25T00:36:18.315Z,29.35
2019-03-25T00:36:54.730Z,29.36
2019-03-25T00:37:31.276Z,29.38
2019-03-25T00:38:07.742Z,29.43
2019-03-25T00:38:44.215Z,29.48
2019-03-25T00:39:20.687Z,29.55
2019-03-25T00:39:57.124Z,29.61
2019-03-25T00:40:33.593Z,29.66
2019-03-25T00:41:10.087Z,29.71
2019-03-25T00:41:46.685Z,29.77
2019-03-25T00:42:23.108Z,29.81
2019-03-25T00:42:59.614Z,29.88
2019-03-25T00:43:36.163Z,29.92
2019-03-25T00:44:12.573Z,29.95
2019-03-25T00:44:49.108Z,29.99
2019-03-25T00:45:25.528Z,29.99
2019-03-25T00:46:02.050Z,29.98
2019-03-25T00:46:38.537Z,30.00
2019-03-25T00:47:14.981Z,30.02
2019-03-25T00:47:51.446Z,30.08
2019-03-25T00:48:27.964Z,30.11
2019-03-25T00:49:04.394Z,30.10
2019-03-25T00:49:40.838Z,30.09
2019-03-25T00:50:17.290Z,30.09
2019-03-25T00:50:53.794Z,30.12
2019-03-25T00:51:30.272Z,30.21
2019-03-25T00:52:06.825Z,30.29
2019-03-25T00:52:43.257Z,30.37
2019-03-25T00:53:19.833Z,30.37
2019-03-25T00:53:56.250Z,30.40
2019-03-25T00:54:32.779Z,30.53
2019-03-25T00:55:09.219Z,30.53
2019-03-25T00:55:45.633Z,30.57
2019-03-25T00:56:22.061Z,30.63
2019-03-25T00:56:58.470Z,30.69
2019-03-25T00:57:35.079Z,30.69
2019-03-25T00:58:11.573Z,30.69
2019-03-25T00:58:48.050Z,30.68
2019-03-25T00:59:24.540Z,30.68
2019-03-25T01:00:00.966Z,30.66
2019-03-25T01:00:37.629Z,30.65
2019-03-25T01:01:14.504Z,30.65
2019-03-25T01:01:50.949Z,30.61
2019-03-25T01:02:27.518Z,30.61
2019-03-25T01:03:04.045Z,30.61
2019-03-25T01:03:40.476Z,30.58
2019-03-25T01:04:17.010Z,30.58
2019-03-25T01:04:53.523Z,30.51
2019-03-25T01:05:29.976Z,30.46
2019-03-25T01:06:06.395Z,30.45
2019-03-25T01:06:42.823Z,30.45
2019-03-25T01:07:19.258Z,30.43
2019-03-25T01:07:55.727Z,30.44
2019-03-25T01:08:32.307Z,30.43
2019-03-25T01:09:09.539Z,30.42
2019-03-25T01:09:45.941Z,30.41
2019-03-25T01:10:22.500Z,30.41
2019-03-25T01:10:58.959Z,30.35
2019-03-25T01:11:35.440Z,30.40
2019-03-25T01:12:11.988Z,30.36
2019-03-25T01:12:48.412Z,30.37
2019-03-25T01:13:24.900Z,30.37
2019-03-25T01:14:01.348Z,30.41
2019-03-25T01:14:37.864Z,30.41
2019-03-25T01:15:14.431Z,30.41
2019-03-25T01:15:51.140Z,30.41
2019-03-25T01:16:27.547Z,30.40
2019-03-25T01:17:04.035Z,30.38
2019-03-25T01:17:40.572Z,30.38
2019-03-25T01:18:17.563Z,30.38
2019-03-25T01:18:54.089Z,30.37
2019-03-25T01:19:30.565Z,30.37
2019-03-25T01:20:07.387Z,30.38
2019-03-25T01:20:43.897Z,30.38
2019-03-25T01:21:20.531Z,30.36
2019-03-25T01:21:57.026Z,30.36
2019-03-25T01:22:33.449Z,30.42
2019-03-25T01:23:09.891Z,30.42
2019-03-25T01:23:46.334Z,30.41
2019-03-25T01:24:22.760Z,30.41
2019-03-25T01:25:02.088Z,30.34
2019-03-25T01:25:37.544Z,30.38
2019-03-25T01:26:14.112Z,30.43
2019-03-25T01:26:50.767Z,30.45
2019-03-25T01:27:27.344Z,30.50
2019-03-25T01:28:03.778Z,30.50
2019-03-25T01:28:40.223Z,30.61
2019-03-25T01:29:16.687Z,30.61
2019-03-25T01:29:53.231Z,30.68
2019-03-25T01:30:29.752Z,30.89
2019-03-25T01:31:06.302Z,30.94
2019-03-25T01:31:42.862Z,30.94
2019-03-25T01:32:19.334Z,31.09
2019-03-25T01:32:55.826Z,31.20
2019-03-25T01:33:32.365Z,31.29
2019-03-25T01:34:08.838Z,31.36
2019-03-25T01:34:45.306Z,31.33
2019-03-25T01:35:21.843Z,31.43
2019-03-25T01:35:58.425Z,31.39
2019-03-25T01:36:34.962Z,31.47
2019-03-25T01:37:11.405Z,31.47
2019-03-25T01:37:47.820Z,31.51
2019-03-25T01:38:24.270Z,31.53
2019-03-25T01:39:00.706Z,31.52
2019-03-25T01:39:37.245Z,31.63
2019-03-25T01:40:15.257Z,31.74
2019-03-25T01:40:51.807Z,31.82
2019-03-25T01:41:28.233Z,31.91
2019-03-25T01:42:04.763Z,31.96
2019-03-25T01:42:41.296Z,31.99
2019-03-25T01:43:17.782Z,32.02
2019-03-25T01:43:54.398Z,32.02
2019-03-25T01:44:30.833Z,31.98
2019-03-25T01:45:07.516Z,31.97
2019-03-25T01:45:43.927Z,31.95
2019-03-25T01:46:20.296Z,31.91
2019-03-25T01:46:56.762Z,31.93
2019-03-25T01:47:33.216Z,31.93
2019-03-25T01:48:09.691Z,31.91
2019-03-25T01:48:46.171Z,31.91
2019-03-25T01:49:22.695Z,31.87
2019-03-25T01:49:59.188Z,31.85
2019-03-25T01:50:35.723Z,31.82
2019-03-25T01:51:12.148Z,31.79
2019-03-25T01:51:48.621Z,31.73
2019-03-25T01:52:25.075Z,31.71
2019-03-25T01:53:01.518Z,31.67
2019-03-25T01:53:38.009Z,31.66
2019-03-25T01:54:14.459Z,31.62
2019-03-25T01:54:50.897Z,31.57
2019-03-25T01:55:27.383Z,31.60
2019-03-25T01:56:03.827Z,31.50
2019-03-25T01:56:40.345Z,31.54
2019-03-25T01:57:16.987Z,31.52
2019-03-25T01:57:53.447Z,31.52
2019-03-25T01:58:29.970Z,31.51
2019-03-25T01:59:06.407Z,31.46
2019-03-25T01:59:42.822Z,31.46
2019-03-25T02:00:19.355Z,31.44
2019-03-25T02:00:55.903Z,31.51
2019-03-25T02:01:32.292Z,31.51
2019-03-25T02:02:08.679Z,31.51
2019-03-25T02:02:45.184Z,31.52
2019-03-25T02:03:21.658Z,31.53
2019-03-25T02:03:58.119Z,31.56
2019-03-25T02:04:34.779Z,31.56
2019-03-25T02:05:11.501Z,31.59
2019-03-25T02:05:48.533Z,31.61
2019-03-25T02:06:24.952Z,31.64
2019-03-25T02:07:01.402Z,31.64
2019-03-25T02:07:37.850Z,31.68
2019-03-25T02:08:14.362Z,31.68
2019-03-25T02:08:50.887Z,31.70
2019-03-25T02:09:27.302Z,31.73
2019-03-25T02:10:03.752Z,31.73
2019-03-25T02:10:40.172Z,31.75
2019-03-25T02:11:16.681Z,31.78
2019-03-25T02:11:53.179Z,31.78
2019-03-25T02:12:29.592Z,31.81
2019-03-25T02:13:06.015Z,31.85
2019-03-25T02:13:42.575Z,31.87
2019-03-25T02:14:19.032Z,31.88
2019-03-25T02:14:55.511Z,31.90
2019-03-25T02:15:31.941Z,31.91
2019-03-25T02:16:08.369Z,31.91
2019-03-25T02:16:44.955Z,31.91
2019-03-25T02:17:21.396Z,31.90
2019-03-25T02:17:57.810Z,31.92
2019-03-25T02:18:34.280Z,31.94
2019-03-25T02:19:10.742Z,31.97
2019-03-25T02:19:47.245Z,32.00
2019-03-25T02:20:26.626Z,32.02
2019-03-25T02:21:02.175Z,32.04
2019-03-25T02:21:38.691Z,32.05
2019-03-25T02:22:15.206Z,32.07
2019-03-25T02:22:51.902Z,32.09
2019-03-25T02:23:28.452Z,32.14
2019-03-25T02:24:04.900Z,32.17
2019-03-25T02:24:41.340Z,32.23
2019-03-25T02:25:25.269Z,32.31
2019-03-25T02:26:04.705Z,32.38
2019-03-25T02:26:41.170Z,32.46
2019-03-25T02:27:17.654Z,32.54
2019-03-25T02:27:54.163Z,32.61
2019-03-25T02:28:30.586Z,32.66
2019-03-25T02:29:07.800Z,32.71
2019-03-25T02:29:44.311Z,32.77
2019-03-25T02:30:20.891Z,32.83
2019-03-25T02:30:57.371Z,32.88
2019-03-25T02:31:34.139Z,32.96
2019-03-25T02:32:10.608Z,33.07
2019-03-25T02:32:47.667Z,33.22
2019-03-25T02:33:24.126Z,33.33
2019-03-25T02:34:00.660Z,33.44
2019-03-25T02:34:37.259Z,33.56
2019-03-25T02:35:13.667Z,33.62
2019-03-25T02:35:50.866Z,33.71
2019-03-25T02:36:27.386Z,33.83
2019-03-25T02:37:03.778Z,33.91
2019-03-25T02:37:40.316Z,34.01
2019-03-25T02:38:16.800Z,34.01
2019-03-25T02:38:53.294Z,33.93
2019-03-25T02:39:29.720Z,33.96
2019-03-25T02:40:06.555Z,34.03
2019-03-25T02:40:43.005Z,34.12
2019-03-25T02:41:19.434Z,34.21
2019-03-25T02:41:55.844Z,34.21
2019-03-25T02:42:32.341Z,34.19
2019-03-25T02:43:08.885Z,34.29
2019-03-25T02:43:45.667Z,34.36
2019-03-25T02:44:22.330Z,34.33
2019-03-25T02:44:58.842Z,34.24
2019-03-25T02:45:35.278Z,34.13
2019-03-25T02:46:13.164Z,34.01
2019-03-25T02:46:49.603Z,33.89
2019-03-25T02:47:26.066Z,33.82
2019-03-25T02:48:02.492Z,33.70
2019-03-25T02:48:38.933Z,33.62
2019-03-25T02:49:15.342Z,33.55
2019-03-25T02:49:51.772Z,33.48
2019-03-25T02:50:28.237Z,33.44
2019-03-25T02:51:04.722Z,33.36
2019-03-25T02:51:43.933Z,33.33
2019-03-25T02:52:20.332Z,33.27
2019-03-25T02:52:56.909Z,33.19
2019-03-25T02:53:33.346Z,33.16
2019-03-25T02:54:09.804Z,33.14
2019-03-25T02:54:46.249Z,33.11
2019-03-25T02:55:22.707Z,33.08
2019-03-25T02:55:59.243Z,33.05
2019-03-25T02:56:35.673Z,33.02
2019-03-25T02:57:12.102Z,32.99
2019-03-25T02:57:48.545Z,32.98
2019-03-25T02:58:25.070Z,32.97
2019-03-25T02:59:01.677Z,32.98
2019-03-25T02:59:38.292Z,33.18
2019-03-25T03:00:16.546Z,33.35
2019-03-25T03:00:52.951Z,33.53
2019-03-25T03:01:29.361Z,33.59
2019-03-25T03:02:05.799Z,33.65
2019-03-25T03:02:42.215Z,33.82
2019-03-25T03:03:18.763Z,33.88
2019-03-25T03:03:55.246Z,33.92
2019-03-25T03:04:31.663Z,33.93
2019-03-25T03:05:08.233Z,33.91
2019-03-25T03:05:44.816Z,33.88
2019-03-25T03:06:21.879Z,33.79
2019-03-25T03:06:58.311Z,33.74
2019-03-25T03:07:34.781Z,33.70
2019-03-25T03:08:11.241Z,33.67
2019-03-25T03:08:47.825Z,33.73
2019-03-25T03:09:24.313Z,33.95
2019-03-25T03:10:00.754Z,34.04
2019-03-25T03:10:38.544Z,34.15
2019-03-25T03:11:14.984Z,34.30
2019-03-25T03:11:51.392Z,34.39
2019-03-25T03:12:27.924Z,34.41
2019-03-25T03:13:04.421Z,34.36
2019-03-25T03:13:40.976Z,34.27
2019-03-25T03:14:17.465Z,34.18
2019-03-25T03:14:53.905Z,34.12
2019-03-25T03:15:30.526Z,34.09
2019-03-25T03:16:06.918Z,34.04
2019-03-25T03:16:43.492Z,34.02
2019-03-25T03:17:20.050Z,34.03
2019-03-25T03:17:56.577Z,34.01
2019-03-25T03:18:33.001Z,33.99
2019-03-25T03:19:09.560Z,33.96
2019-03-25T03:19:46.077Z,33.90
2019-03-25T03:20:22.571Z,33.83
2019-03-25T03:20:58.998Z,33.78
2019-03-25T03:21:35.596Z,33.73
2019-03-25T03:22:12.156Z,33.68
2019-03-25T03:22:48.790Z,33.65
2019-03-25T03:23:25.301Z,33.64
2019-03-25T03:24:01.784Z,33.61
2019-03-25T03:24:38.248Z,33.60
2019-03-25T03:25:14.919Z,33.58
2019-03-25T03:25:57.552Z,33.57
2019-03-25T03:26:29.743Z,33.56
2019-03-25T03:27:06.356Z,33.56
2019-03-25T03:27:42.818Z,33.56
2019-03-25T03:28:19.353Z,33.54
2019-03-25T03:28:55.800Z,33.52
2019-03-25T03:29:32.251Z,33.49
2019-03-25T03:30:09.729Z,33.47
2019-03-25T03:30:46.228Z,33.45
2019-03-25T03:31:22.664Z,33.44
2019-03-25T03:31:59.095Z,33.43
2019-03-25T03:32:35.557Z,33.43
2019-03-25T03:33:12.074Z,33.49
2019-03-25T03:33:48.664Z,33.56
2019-03-25T03:34:25.263Z,33.60
2019-03-25T03:35:01.896Z,33.65
2019-03-25T03:35:38.281Z,33.70
2019-03-25T03:36:14.844Z,33.84
2019-03-25T03:36:51.282Z,34.03
2019-03-25T03:37:27.715Z,34.18
2019-03-25T03:38:04.295Z,34.33
2019-03-25T03:38:40.759Z,34.50
2019-03-25T03:39:17.186Z,34.64
2019-03-25T03:39:53.649Z,34.70
2019-03-25T03:40:30.081Z,34.76
2019-03-25T03:41:06.666Z,34.86
2019-03-25T03:41:43.220Z,34.89
2019-03-25T03:42:19.736Z,34.90
2019-03-25T03:42:56.301Z,34.98
2019-03-25T03:43:32.776Z,35.09
2019-03-25T03:44:09.450Z,35.17
2019-03-25T03:44:48.705Z,35.16
2019-03-25T03:45:25.225Z,35.08
2019-03-25T03:46:01.700Z,35.02
2019-03-25T03:46:38.180Z,34.93
2019-03-25T03:47:14.700Z,34.89
2019-03-25T03:47:51.266Z,34.90
2019-03-25T03:48:27.926Z,34.93
2019-03-25T03:49:04.363Z,34.90
2019-03-25T03:49:40.878Z,34.82
2019-03-25T03:50:25.957Z,34.78
2019-03-25T03:51:02.490Z,34.74
2019-03-25T03:51:39.000Z,34.72
2019-03-25T03:52:15.522Z,34.65
2019-03-25T03:52:51.953Z,34.65
2019-03-25T03:53:28.994Z,34.81
2019-03-25T03:54:05.608Z,34.87
2019-03-25T03:54:42.164Z,34.91
2019-03-25T03:55:18.592Z,34.85
2019-03-25T03:55:55.314Z,34.78
2019-03-25T03:56:33.331Z,34.70
2019-03-25T03:57:10.731Z,34.68
2019-03-25T03:57:47.402Z,34.65
2019-03-25T03:58:24.916Z,34.55
2019-03-25T03:59:02.294Z,34.66
2019-03-25T03:59:39.047Z,34.81
2019-03-25T04:00:20.593Z,34.79
2019-03-25T04:00:57.144Z,34.72
2019-03-25T04:01:33.585Z,34.63
2019-03-25T04:02:10.024Z,34.53
2019-03-25T04:02:46.578Z,34.39
2019-03-25T04:03:23.899Z,34.29
2019-03-25T04:04:00.359Z,34.24
2019-03-25T04:04:36.850Z,34.15
2019-03-25T04:05:13.279Z,34.07
2019-03-25T04:05:49.832Z,34.05
2019-03-25T04:06:26.230Z,33.95
2019-03-25T04:07:02.771Z,33.90
2019-03-25T04:07:39.172Z,33.84
2019-03-25T04:08:15.683Z,33.79
2019-03-25T04:08:52.121Z,33.77
2019-03-25T04:09:28.577Z,33.72
2019-03-25T04:10:05.212Z,33.73
2019-03-25T04:10:41.730Z,33.80
2019-03-25T04:11:18.192Z,33.84
2019-03-25T04:11:54.681Z,34.01
2019-03-25T04:12:31.148Z,34.16
2019-03-25T04:13:07.868Z,34.30
2019-03-25T04:13:44.853Z,34.23
2019-03-25T04:14:21.282Z,34.19
2019-03-25T04:14:57.843Z,34.33
2019-03-25T04:15:35.109Z,34.46
2019-03-25T04:16:12.463Z,34.60
2019-03-25T04:16:50.937Z,34.72
2019-03-25T04:17:27.559Z,34.82
2019-03-25T04:18:07.991Z,34.92
2019-03-25T04:18:46.931Z,35.02
2019-03-25T04:19:25.246Z,35.16
2019-03-25T04:20:01.792Z,35.28
2019-03-25T04:21:09.517Z,35.38
2019-03-25T04:21:46.556Z,35.48
2019-03-25T04:22:23.012Z,35.63
2019-03-25T04:22:59.662Z,35.64
2019-03-25T04:23:36.076Z,35.69
2019-03-25T04:24:12.587Z,35.72
2019-03-25T04:24:49.115Z,35.78
2019-03-25T04:25:25.796Z,35.86
2019-03-25T04:26:02.413Z,35.96
2019-03-25T04:26:38.983Z,36.00
2019-03-25T04:27:15.459Z,35.94
2019-03-25T04:27:51.915Z,35.97
2019-03-25T04:28:28.360Z,36.06
2019-03-25T04:29:04.765Z,36.01
2019-03-25T04:29:41.186Z,36.01
2019-03-25T04:30:17.691Z,36.04
2019-03-25T04:30:54.311Z,36.07
2019-03-25T04:31:30.717Z,36.14
2019-03-25T04:32:07.120Z,36.16
2019-03-25T04:32:43.547Z,36.23
2019-03-25T04:33:19.903Z,36.30
2019-03-25T04:33:56.317Z,36.27
2019-03-25T04:34:32.745Z,36.20
2019-03-25T04:35:09.205Z,36.25
2019-03-25T04:35:45.609Z,36.28
2019-03-25T04:36:22.200Z,36.30
2019-03-25T04:36:58.778Z,36.21
2019-03-25T04:37:35.288Z,36.10
2019-03-25T04:38:11.888Z,36.11
2019-03-25T04:38:48.317Z,36.11
2019-03-25T04:39:24.739Z,36.06
2019-03-25T04:40:01.305Z,36.05
2019-03-25T04:40:37.783Z,36.06
2019-03-25T04:41:14.220Z,36.09
2019-03-25T04:41:50.670Z,36.06
2019-03-25T04:42:27.245Z,36.09
2019-03-25T04:43:03.694Z,36.16
2019-03-25T04:43:40.145Z,36.18
2019-03-25T04:44:16.566Z,36.20
2019-03-25T04:44:53.122Z,36.29
2019-03-25T04:45:29.515Z,36.34
2019-03-25T04:46:05.939Z,36.36
2019-03-25T04:46:42.404Z,36.37
2019-03-25T04:47:18.816Z,36.44
2019-03-25T04:47:55.225Z,36.48
2019-03-25T04:48:31.692Z,36.45
2019-03-25T04:49:08.108Z,36.40
2019-03-25T04:49:44.531Z,36.42
2019-03-25T04:50:21.072Z,36.44
2019-03-25T04:50:57.545Z,36.45
2019-03-25T04:51:34.074Z,36.47
2019-03-25T04:52:10.486Z,36.53
2019-03-25T04:52:46.955Z,36.58
2019-03-25T04:53:23.530Z,36.59
2019-03-25T04:53:59.971Z,36.60
2019-03-25T04:54:36.446Z,36.62
2019-03-25T04:55:12.830Z,36.69
2019-03-25T04:55:49.371Z,36.74
2019-03-25T04:56:25.853Z,36.76
2019-03-25T04:57:02.295Z,36.84
2019-03-25T04:57:38.818Z,36.90
2019-03-25T04:58:15.236Z,36.94
2019-03-25T04:58:51.632Z,36.93
2019-03-25T04:59:28.172Z,36.96
2019-03-25T05:00:04.775Z,37.02
2019-03-25T05:00:41.306Z,37.07
2019-03-25T05:01:17.714Z,37.06
2019-03-25T05:01:54.195Z,37.07
2019-03-25T05:02:30.637Z,37.08
2019-03-25T05:03:07.719Z,37.13
2019-03-25T05:03:44.127Z,37.12
2019-03-25T05:04:20.666Z,37.07
2019-03-25T05:04:57.083Z,36.96
2019-03-25T05:05:35.935Z,36.91
2019-03-25T05:06:11.878Z,36.89
2019-03-25T05:06:48.280Z,36.92
2019-03-25T05:07:24.685Z,36.84
2019-03-25T05:08:01.187Z,36.87
2019-03-25T05:08:37.596Z,36.90
2019-03-25T05:09:14.024Z,36.92
2019-03-25T05:09:50.512Z,36.95
2019-03-25T05:10:27.006Z,36.94
2019-03-25T05:11:03.902Z,36.92
2019-03-25T05:11:40.405Z,36.92
2019-03-25T05:12:16.792Z,36.87
2019-03-25T05:12:53.224Z,36.84
2019-03-25T05:13:29.635Z,36.83
2019-03-25T05:14:06.082Z,36.76
2019-03-25T05:14:42.476Z,36.75
2019-03-25T05:15:18.922Z,36.69
2019-03-25T05:15:55.381Z,36.69
2019-03-25T05:16:31.774Z,36.63
2019-03-25T05:17:08.199Z,36.53
2019-03-25T05:17:44.729Z,36.45
2019-03-25T05:18:21.168Z,36.37
2019-03-25T05:18:57.609Z,36.35
2019-03-25T05:19:34.009Z,36.28
2019-03-25T05:20:10.472Z,36.21
2019-03-25T05:20:46.888Z,36.10
2019-03-25T05:21:23.319Z,36.08
2019-03-25T05:21:59.805Z,36.06
2019-03-25T05:22:36.368Z,36.05
2019-03-25T05:23:12.922Z,36.05
2019-03-25T05:23:49.355Z,35.98
2019-03-25T05:24:25.813Z,35.88
2019-03-25T05:25:02.285Z,35.79
2019-03-25T05:25:38.786Z,35.74
2019-03-25T05:26:15.324Z,35.79
2019-03-25T05:26:51.769Z,35.85
2019-03-25T05:27:28.251Z,35.97
2019-03-25T05:28:04.826Z,35.97
2019-03-25T05:28:41.289Z,35.99
2019-03-25T05:29:17.783Z,36.06
2019-03-25T05:29:54.224Z,36.08
2019-03-25T05:30:30.597Z,36.05
2019-03-25T05:31:07.023Z,36.06
2019-03-25T05:31:43.429Z,36.10
2019-03-25T05:32:19.948Z,36.02
2019-03-25T05:32:56.373Z,35.97
2019-03-25T05:33:32.814Z,35.99
2019-03-25T05:34:09.279Z,36.01
2019-03-25T05:34:45.711Z,35.98
2019-03-25T05:35:22.135Z,35.99
2019-03-25T05:35:58.610Z,36.00
2019-03-25T05:36:35.157Z,35.97
2019-03-25T05:37:11.621Z,35.96
2019-03-25T05:37:48.076Z,35.98
2019-03-25T05:38:24.496Z,36.02
2019-03-25T05:39:00.915Z,35.99
2019-03-25T05:39:37.449Z,35.96
2019-03-25T05:40:13.991Z,35.98
2019-03-25T05:40:50.533Z,35.93
2019-03-25T05:41:26.961Z,35.93
2019-03-25T05:42:03.411Z,35.92
2019-03-25T05:42:39.968Z,35.95
2019-03-25T05:43:16.371Z,35.98
2019-03-25T05:43:52.971Z,36.06
2019-03-25T05:44:29.467Z,36.08
2019-03-25T05:45:05.994Z,36.11
2019-03-25T05:45:42.415Z,36.10
2019-03-25T05:46:18.881Z,36.16
2019-03-25T05:46:55.276Z,36.23
2019-03-25T05:47:31.681Z,36.28
2019-03-25T05:48:08.081Z,36.31
2019-03-25T05:48:44.571Z,36.20
2019-03-25T05:49:21.023Z,36.15
2019-03-25T05:49:57.601Z,36.05
2019-03-25T05:50:34.011Z,36.01
2019-03-25T05:51:10.429Z,35.93
2019-03-25T05:51:46.854Z,35.92
2019-03-25T05:52:23.272Z,35.90
2019-03-25T05:52:59.701Z,35.86
2019-03-25T05:53:36.209Z,35.87
2019-03-25T05:54:12.707Z,35.83
2019-03-25T05:54:49.114Z,35.86
2019-03-25T05:55:25.554Z,35.87
2019-03-25T05:56:02.000Z,35.89
2019-03-25T05:56:38.436Z,35.96
2019-03-25T05:57:14.994Z,36.04
2019-03-25T05:57:51.413Z,35.96
2019-03-25T05:58:27.977Z,35.96
2019-03-25T05:59:04.397Z,35.94
2019-03-25T05:59:40.821Z,35.86
2019-03-25T06:00:18.931Z,35.83
2019-03-25T06:00:56.689Z,35.75
2019-03-25T06:01:33.104Z,35.69
2019-03-25T06:02:09.532Z,35.66
2019-03-25T06:02:45.972Z,35.62
2019-03-25T06:03:22.435Z,35.54
2019-03-25T06:03:58.903Z,35.48
2019-03-25T06:04:35.322Z,35.41
2019-03-25T06:05:11.926Z,35.35
2019-03-25T06:05:48.463Z,35.32
2019-03-25T06:06:24.929Z,35.28
2019-03-25T06:07:01.416Z,35.22
2019-03-25T06:07:37.898Z,35.15
2019-03-25T06:08:14.376Z,35.09
2019-03-25T06:08:50.841Z,35.05
2019-03-25T06:09:27.226Z,35.00
2019-03-25T06:10:03.635Z,34.98
2019-03-25T06:10:40.037Z,34.97
2019-03-25T06:11:16.475Z,34.94
2019-03-25T06:11:52.968Z,34.93
2019-03-25T06:12:29.553Z,34.87
2019-03-25T06:13:06.022Z,34.83
2019-03-25T06:13:42.431Z,34.85
2019-03-25T06:14:18.873Z,34.82
2019-03-25T06:14:55.292Z,34.90
2019-03-25T06:15:31.734Z,34.93
2019-03-25T06:16:08.279Z,35.04
2019-03-25T06:16:44.700Z,35.07
2019-03-25T06:17:21.279Z,35.13
2019-03-25T06:17:57.650Z,35.16
2019-03-25T06:18:34.171Z,35.15
2019-03-25T06:19:10.615Z,35.20
2019-03-25T06:19:47.064Z,35.28
2019-03-25T06:20:23.438Z,35.32
2019-03-25T06:20:59.889Z,35.35
2019-03-25T06:21:36.323Z,35.33
2019-03-25T06:22:12.748Z,35.34
2019-03-25T06:22:49.167Z,35.33
2019-03-25T06:23:25.561Z,35.35
2019-03-25T06:24:01.975Z,35.40
2019-03-25T06:24:38.498Z,35.42
2019-03-25T06:25:15.217Z,35.46
2019-03-25T06:25:51.775Z,35.49
2019-03-25T06:26:28.248Z,35.51
2019-03-25T06:27:13.630Z,35.58
2019-03-25T06:27:42.873Z,35.64
2019-03-25T06:28:19.329Z,35.71
2019-03-25T06:28:55.759Z,35.82
2019-03-25T06:29:32.213Z,35.92
2019-03-25T06:30:09.129Z,35.97
2019-03-25T06:30:45.593Z,36.06
2019-03-25T06:31:22.049Z,36.09
2019-03-25T06:31:58.500Z,36.11
2019-03-25T06:32:34.893Z,36.13
2019-03-25T06:33:12.582Z,36.18
2019-03-25T06:33:49.269Z,36.17
2019-03-25T06:34:25.739Z,36.14
2019-03-25T06:35:02.269Z,36.20
2019-03-25T06:35:38.688Z,36.23
2019-03-25T06:36:15.101Z,36.25
2019-03-25T06:36:51.511Z,36.32
2019-03-25T06:37:27.949Z,36.32
2019-03-25T06:38:04.372Z,36.31
2019-03-25T06:38:40.964Z,36.34
2019-03-25T06:39:17.418Z,36.30
2019-03-25T06:39:53.821Z,36.30
2019-03-25T06:40:30.292Z,36.33
2019-03-25T06:41:06.740Z,36.28
2019-03-25T06:41:43.201Z,36.31
2019-03-25T06:42:19.827Z,36.28
2019-03-25T06:42:56.233Z,36.26
2019-03-25T06:43:32.780Z,36.16
2019-03-25T06:44:09.245Z,36.13
2019-03-25T06:44:45.655Z,36.15
2019-03-25T06:45:22.205Z,36.20
2019-03-25T06:45:58.867Z,36.22
2019-03-25T06:46:35.349Z,36.29
2019-03-25T06:47:11.817Z,36.35
2019-03-25T06:47:48.261Z,36.39
2019-03-25T06:48:24.652Z,36.48
2019-03-25T06:49:01.096Z,36.52
2019-03-25T06:49:37.513Z,36.54
2019-03-25T06:50:14.237Z,36.56
2019-03-25T06:50:50.658Z,36.63
2019-03-25T06:51:27.079Z,36.67
2019-03-25T06:52:03.479Z,36.68
2019-03-25T06:52:39.941Z,36.73
2019-03-25T06:53:16.386Z,36.77
2019-03-25T06:53:52.792Z,36.74
2019-03-25T06:54:29.242Z,36.78
2019-03-25T06:55:05.675Z,36.82
2019-03-25T06:55:42.138Z,36.79
2019-03-25T06:56:18.522Z,36.83
2019-03-25T06:56:54.927Z,36.86
2019-03-25T06:57:31.357Z,36.86
2019-03-25T06:58:07.776Z,36.89
2019-03-25T06:58:44.185Z,36.96
2019-03-25T06:59:20.552Z,36.97
2019-03-25T06:59:56.959Z,37.00
2019-03-25T07:00:33.464Z,36.99
2019-03-25T07:01:09.869Z,36.97
2019-03-25T07:01:46.280Z,36.99
2019-03-25T07:02:22.774Z,36.97
2019-03-25T07:02:59.199Z,37.03
2019-03-25T07:03:35.618Z,36.96
2019-03-25T07:04:12.089Z,37.01
2019-03-25T07:04:48.521Z,36.98
2019-03-25T07:05:24.929Z,36.87
2019-03-25T07:06:01.376Z,36.89
2019-03-25T07:06:37.783Z,36.91
2019-03-25T07:07:14.171Z,36.87
2019-03-25T07:07:50.570Z,36.84
2019-03-25T07:08:27.010Z,36.84
2019-03-25T07:09:05.158Z,36.83
2019-03-25T07:09:41.548Z,36.86
2019-03-25T07:10:30.910Z,36.79
2019-03-25T07:11:07.454Z,36.79
2019-03-25T07:11:43.984Z,36.78
2019-03-25T07:12:20.575Z,36.65
2019-03-25T07:12:57.013Z,36.63
2019-03-25T07:13:33.435Z,36.63
2019-03-25T07:14:09.831Z,36.57
2019-03-25T07:14:46.406Z,36.53
2019-03-25T07:15:25.996Z,36.51
2019-03-25T07:16:02.455Z,36.46
2019-03-25T07:16:38.895Z,36.46
2019-03-25T07:17:15.324Z,36.42
2019-03-25T07:17:51.860Z,36.40
2019-03-25T07:18:28.420Z,36.45
2019-03-25T07:19:04.855Z,36.50
2019-03-25T07:19:41.282Z,36.61
2019-03-25T07:20:17.667Z,36.63
2019-03-25T07:20:54.116Z,36.64
2019-03-25T07:21:30.547Z,36.69
2019-03-25T07:22:06.979Z,36.63
2019-03-25T07:22:43.379Z,36.63
2019-03-25T07:23:19.772Z,36.63
2019-03-25T07:23:56.157Z,36.66
2019-03-25T07:24:32.624Z,36.62
2019-03-25T07:25:09.174Z,36.53
2019-03-25T07:25:45.614Z,36.47
2019-03-25T07:26:22.045Z,36.45
2019-03-25T07:26:58.500Z,36.50
2019-03-25T07:27:37.092Z,36.48
2019-03-25T07:28:13.129Z,36.46
2019-03-25T07:28:49.525Z,36.30
2019-03-25T07:29:25.963Z,36.27
2019-03-25T07:30:02.483Z,36.27
2019-03-25T07:30:38.920Z,36.20
2019-03-25T07:31:15.354Z,36.18
2019-03-25T07:31:51.828Z,36.16
2019-03-25T07:32:28.249Z,36.18
2019-03-25T07:33:04.678Z,36.28
2019-03-25T07:33:41.229Z,36.41
2019-03-25T07:34:17.661Z,36.42
2019-03-25T07:34:54.086Z,36.48
2019-03-25T07:35:30.535Z,36.51
2019-03-25T07:36:07.057Z,36.58
2019-03-25T07:36:43.462Z,36.57
2019-03-25T07:37:19.906Z,36.57
2019-03-25T07:37:56.457Z,36.61
2019-03-25T07:38:33.002Z,36.61
2019-03-25T07:39:09.605Z,36.59
2019-03-25T07:39:46.073Z,36.60
2019-03-25T07:40:22.615Z,36.61
2019-03-25T07:40:59.047Z,36.58
2019-03-25T07:41:35.506Z,36.57
2019-03-25T07:42:12.069Z,36.60
2019-03-25T07:42:49.242Z,36.51
2019-03-25T07:43:25.636Z,36.54
2019-03-25T07:44:02.094Z,36.55
2019-03-25T07:44:38.562Z,36.53
2019-03-25T07:45:15.142Z,36.42
2019-03-25T07:45:51.656Z,36.40
2019-03-25T07:46:28.166Z,36.31
2019-03-25T07:47:04.613Z,36.33
2019-03-25T07:47:41.029Z,36.18
2019-03-25T07:48:17.521Z,36.14
2019-03-25T07:48:53.963Z,36.13
2019-03-25T07:49:30.419Z,36.14
2019-03-25T07:50:06.898Z,36.08
2019-03-25T07:50:43.338Z,35.99
2019-03-25T07:51:19.828Z,35.83
2019-03-25T07:51:56.389Z,35.79
2019-03-25T07:52:32.778Z,35.74
2019-03-25T07:53:09.174Z,35.52